createdAt,value
2023-03-21T00:01:59.276Z,8.70
2023-03-21T00:06:51.836Z,10.70
2023-03-21T00:11:43.655Z,8.07
2023-03-21T00:16:36.736Z,7.67
2023-03-21T00:26:45.123Z,8.03
2023-03-21T00:31:37.367Z,7.83
2023-03-21T00:36:29.448Z,7.33
2023-03-21T00:41:39.059Z,7.23
2023-03-21T00:46:45.224Z,9.23
2023-03-21T00:51:43.805Z,9.00
2023-03-21T00:56:35.528Z,8.10
2023-03-21T01:01:32.020Z,7.30
2023-03-21T01:06:24.073Z,9.43
2023-03-21T01:11:20.986Z,7.87
2023-03-21T01:16:12.868Z,9.67
2023-03-21T01:21:08.485Z,6.87
2023-03-21T01:26:00.256Z,6.80
2023-03-21T01:30:52.563Z,8.53
2023-03-21T01:35:50.279Z,8.33
2023-03-21T01:40:48.885Z,8.27
2023-03-21T01:46:21.493Z,7.67
2023-03-21T01:51:41.282Z,9.40
2023-03-21T01:56:37.134Z,9.30
2023-03-21T02:01:34.836Z,9.33
2023-03-21T02:06:38.402Z,9.20
2023-03-21T02:11:56.811Z,9.70
2023-03-21T02:17:13.188Z,10.43
2023-03-21T02:22:05.531Z,9.27
2023-03-21T02:27:14.744Z,8.37
2023-03-21T02:32:22.710Z,12.87
2023-03-21T02:37:38.873Z,13.53
2023-03-21T02:42:48.875Z,8.73
2023-03-21T02:47:52.705Z,8.30
2023-03-21T02:52:48.227Z,7.67
2023-03-21T02:57:43.916Z,7.53
2023-03-21T03:02:37.770Z,7.17
2023-03-21T03:07:47.554Z,9.30
2023-03-21T03:12:49.473Z,6.23
2023-03-21T03:17:59.970Z,8.50
2023-03-21T03:23:04.095Z,6.77
2023-03-21T03:27:58.048Z,6.13
2023-03-21T03:32:55.472Z,8.23
2023-03-21T03:37:53.326Z,8.60
2023-03-21T03:42:52.185Z,7.40
2023-03-21T03:48:27.938Z,6.60
2023-03-21T03:53:28.504Z,10.97
2023-03-21T03:58:25.997Z,7.23
2023-03-21T04:03:23.297Z,6.47
2023-03-21T04:08:16.565Z,5.73
2023-03-21T04:13:13.216Z,8.03
2023-03-21T04:18:24.991Z,8.73
2023-03-21T04:23:18.945Z,9.00
2023-03-21T04:28:12.693Z,9.30
2023-03-21T04:33:27.536Z,9.27
2023-03-21T04:38:23.705Z,7.50
2023-03-21T04:43:15.984Z,6.30
2023-03-21T04:48:07.987Z,7.50
2023-03-21T04:52:59.918Z,7.20
2023-03-21T04:57:52.034Z,8.50
2023-03-21T05:02:46.225Z,6.53
2023-03-21T05:07:39.764Z,7.07
2023-03-21T05:12:31.933Z,9.20
2023-03-21T05:17:24.962Z,11.40
2023-03-21T05:22:19.223Z,7.73
2023-03-21T05:27:14.184Z,11.73
2023-03-21T05:32:10.042Z,9.33
2023-03-21T05:37:01.793Z,11.00
2023-03-21T05:42:12.634Z,10.00
2023-03-21T05:47:06.616Z,9.70
2023-03-21T05:52:10.695Z,8.93
2023-03-21T05:57:04.228Z,9.80
2023-03-21T06:02:15.988Z,11.10
2023-03-21T06:07:08.384Z,9.83
2023-03-21T06:12:04.674Z,11.77
2023-03-21T06:17:26.131Z,10.57
2023-03-21T06:22:23.039Z,7.47
2023-03-21T06:27:15.095Z,11.70
2023-03-21T06:32:18.820Z,8.50
2023-03-21T06:37:12.275Z,9.67
2023-03-21T06:42:04.354Z,9.63
2023-03-21T06:46:56.362Z,13.20
2023-03-21T06:51:48.153Z,6.80
2023-03-21T06:56:43.719Z,7.60
2023-03-21T07:01:38.884Z,11.60
2023-03-21T07:06:32.974Z,8.73
2023-03-21T07:11:25.664Z,12.17
2023-03-21T07:16:18.679Z,14.10
2023-03-21T07:21:11.149Z,9.80
2023-03-21T07:26:07.050Z,9.77
2023-03-21T07:31:02.653Z,10.00
2023-03-21T07:35:55.544Z,11.77
2023-03-21T07:40:48.828Z,9.60
2023-03-21T07:45:42.638Z,9.57
2023-03-21T07:50:34.611Z,10.60
2023-03-21T07:55:26.822Z,8.37
2023-03-21T08:00:23.239Z,8.07
2023-03-21T08:05:15.158Z,10.13
2023-03-21T08:10:07.860Z,11.90
2023-03-21T08:15:01.190Z,10.10
2023-03-21T08:19:53.014Z,9.73
2023-03-21T08:24:44.693Z,8.47
2023-03-21T08:29:40.928Z,9.53
2023-03-21T08:34:32.695Z,10.23
2023-03-21T08:39:25.118Z,11.83
2023-03-21T08:44:17.122Z,9.33
2023-03-21T08:49:08.772Z,7.23
2023-03-21T08:54:00.505Z,9.00
2023-03-21T08:58:52.179Z,10.60
2023-03-21T09:03:43.828Z,10.20
2023-03-21T09:08:35.474Z,7.43
2023-03-21T09:13:27.172Z,8.67
2023-03-21T09:18:22.363Z,10.33
2023-03-21T09:23:14.873Z,9.77
2023-03-21T09:28:06.800Z,11.17
2023-03-21T09:33:09.007Z,9.67
2023-03-21T09:38:01.406Z,8.30
2023-03-21T09:42:56.750Z,7.87
2023-03-21T09:47:53.329Z,12.10
2023-03-21T09:52:51.892Z,8.27
2023-03-21T09:57:45.808Z,12.33
2023-03-21T10:03:07.412Z,5.90
2023-03-21T10:07:59.196Z,8.20
2023-03-21T10:12:53.877Z,9.87
2023-03-21T10:17:52.954Z,9.07
2023-03-21T10:22:47.174Z,8.37
2023-03-21T10:27:38.934Z,7.40
2023-03-21T10:32:30.616Z,6.60
2023-03-21T10:37:23.160Z,8.33
2023-03-21T10:42:26.139Z,6.30
2023-03-21T10:47:31.694Z,7.97
2023-03-21T10:52:28.614Z,9.03
2023-03-21T10:57:23.071Z,9.07
2023-03-21T11:02:24.763Z,8.77
2023-03-21T11:07:19.311Z,8.73
2023-03-21T11:12:14.566Z,7.53
2023-03-21T11:17:18.752Z,9.50
2023-03-21T11:22:13.026Z,6.60
2023-03-21T11:27:09.273Z,9.40
2023-03-21T11:32:23.303Z,7.20
2023-03-21T11:37:32.055Z,7.33
2023-03-21T11:42:39.652Z,7.63
2023-03-21T11:47:31.692Z,8.57
2023-03-21T11:52:41.270Z,6.23
2023-03-21T11:57:52.838Z,9.37
2023-03-21T12:02:56.816Z,8.40
2023-03-21T12:08:08.969Z,7.27
2023-03-21T12:13:22.074Z,8.00
2023-03-21T12:18:35.721Z,8.03
2023-03-21T12:23:51.645Z,6.43
2023-03-21T12:29:05.278Z,7.80
2023-03-21T12:34:10.527Z,7.27
2023-03-21T12:39:24.417Z,5.87
2023-03-21T12:44:20.724Z,6.90
2023-03-21T12:49:26.599Z,9.23
2023-03-21T12:54:18.196Z,9.50
2023-03-21T12:59:28.121Z,7.73
2023-03-21T13:04:46.674Z,5.93
2023-03-21T13:09:40.658Z,6.57
2023-03-21T13:14:41.299Z,6.33
2023-03-21T13:19:50.467Z,7.37
2023-03-21T13:24:50.317Z,6.27
2023-03-21T13:29:49.717Z,7.60
2023-03-21T13:34:41.801Z,6.60
2023-03-21T13:39:33.616Z,7.13
2023-03-21T13:44:36.104Z,7.07
2023-03-21T13:49:29.188Z,5.00
2023-03-21T13:54:29.759Z,5.90
2023-03-21T13:59:42.887Z,6.63
2023-03-21T14:04:41.928Z,5.70
2023-03-21T14:09:50.697Z,6.13
2023-03-21T14:15:14.177Z,3.83
2023-03-21T14:20:42.208Z,8.57
2023-03-21T14:25:44.715Z,6.43
2023-03-21T14:30:42.100Z,8.27
2023-03-21T14:35:34.349Z,7.07
2023-03-21T14:40:28.488Z,7.80
2023-03-21T14:45:23.787Z,7.13
2023-03-21T14:50:15.653Z,7.97
2023-03-21T14:55:15.673Z,6.87
2023-03-21T15:00:14.569Z,8.83
2023-03-21T15:05:29.222Z,10.37
2023-03-21T15:10:21.522Z,7.27
2023-03-21T15:15:15.039Z,8.17
2023-03-21T15:20:10.159Z,6.03
2023-03-21T15:25:06.721Z,6.50
2023-03-21T15:29:58.676Z,5.30
2023-03-21T15:34:54.191Z,5.50
2023-03-21T15:39:45.992Z,6.30
2023-03-21T15:44:37.675Z,7.90
2023-03-21T15:49:33.813Z,5.97
2023-03-21T15:54:27.789Z,4.43
2023-03-21T15:59:19.671Z,6.87
2023-03-21T16:04:13.510Z,5.53
2023-03-21T16:09:25.203Z,6.23
2023-03-21T16:14:18.728Z,4.50
2023-03-21T16:19:10.527Z,3.90
2023-03-21T16:24:02.270Z,5.27
2023-03-21T16:28:54.755Z,5.87
2023-03-21T16:33:47.442Z,7.70
2023-03-21T16:38:39.275Z,3.07
2023-03-21T16:43:31.106Z,5.10
2023-03-21T16:48:23.030Z,4.30
2023-03-21T16:53:14.798Z,4.00
2023-03-21T16:58:06.747Z,4.43
2023-03-21T17:03:06.193Z,3.33
2023-03-21T17:08:02.159Z,4.37
2023-03-21T17:12:54.570Z,3.77
2023-03-21T17:17:48.725Z,5.63
2023-03-21T17:22:40.430Z,6.10
2023-03-21T17:27:32.129Z,6.30
2023-03-21T17:32:23.864Z,6.70
2023-03-21T17:37:16.272Z,4.90
2023-03-21T17:42:15.759Z,3.67
2023-03-21T17:47:07.754Z,3.67
2023-03-21T17:51:59.474Z,5.37
2023-03-21T17:56:51.758Z,4.53
2023-03-21T18:01:43.830Z,4.37
2023-03-21T18:06:37.302Z,3.13
2023-03-21T18:11:29.141Z,4.73
2023-03-21T18:16:23.444Z,4.77
2023-03-21T18:21:18.831Z,4.90
2023-03-21T18:26:16.479Z,4.67
2023-03-21T18:31:15.621Z,4.67
2023-03-21T18:36:13.904Z,4.80
2023-03-21T18:41:07.811Z,5.10
2023-03-21T18:45:59.783Z,5.60
2023-03-21T18:50:51.501Z,3.50
2023-03-21T18:55:46.424Z,4.40
2023-03-21T19:00:41.060Z,3.30
2023-03-21T19:05:33.185Z,5.00
2023-03-21T19:10:24.997Z,4.93
2023-03-21T19:15:19.610Z,5.37
2023-03-21T19:20:13.882Z,5.20
2023-03-21T19:25:07.261Z,6.07
2023-03-21T19:30:13.416Z,3.90
2023-03-21T19:35:07.432Z,4.67
2023-03-21T19:39:59.117Z,5.20
2023-03-21T19:44:50.971Z,5.40
2023-03-21T19:50:27.753Z,4.63
2023-03-21T19:54:55.185Z,4.50
2023-03-21T19:59:47.686Z,4.10
2023-03-21T20:04:39.959Z,4.90
2023-03-21T20:09:50.425Z,3.53
2023-03-21T20:14:47.685Z,3.90
2023-03-21T20:19:39.305Z,4.73
2023-03-21T20:24:31.138Z,4.03
2023-03-21T20:34:37.053Z,4.50
2023-03-21T20:39:30.070Z,3.80
2023-03-21T20:44:48.472Z,4.97
2023-03-21T20:49:33.715Z,4.63
2023-03-21T20:54:25.401Z,3.50
2023-03-21T20:59:26.149Z,5.73
2023-03-21T21:04:20.473Z,3.17
2023-03-21T21:09:12.373Z,5.80
2023-03-21T21:14:05.209Z,7.23
2023-03-21T21:18:56.920Z,6.57
2023-03-21T21:23:48.607Z,4.60
2023-03-21T21:28:43.274Z,3.53
2023-03-21T21:33:35.564Z,4.93
2023-03-21T21:38:29.245Z,4.20
2023-03-21T21:43:21.165Z,4.27
2023-03-21T21:48:14.111Z,6.17
2023-03-21T21:53:06.083Z,4.73
2023-03-21T21:58:00.543Z,4.60
2023-03-21T22:02:53.133Z,7.23
2023-03-21T22:07:54.198Z,5.00
2023-03-21T22:12:46.289Z,7.23
2023-03-21T22:17:39.423Z,5.13
2023-03-21T22:22:31.160Z,5.80
2023-03-21T22:27:22.867Z,7.77
2023-03-21T22:32:14.559Z,7.50
2023-03-21T22:37:06.326Z,4.40
2023-03-21T22:42:00.896Z,4.93
2023-03-21T22:46:52.617Z,5.00
2023-03-21T22:51:44.336Z,5.80
2023-03-21T22:56:36.336Z,6.07
2023-03-21T23:01:28.055Z,6.13
2023-03-21T23:06:19.806Z,5.77
2023-03-21T23:11:12.830Z,7.27
2023-03-21T23:16:06.060Z,4.73
2023-03-21T23:20:58.515Z,5.60
2023-03-21T23:25:50.720Z,6.23
2023-03-21T23:30:43.432Z,4.60
2023-03-21T23:35:38.995Z,7.33
2023-03-21T23:40:31.487Z,7.37
2023-03-21T23:45:23.162Z,6.20
2023-03-21T23:50:14.895Z,8.90
2023-03-21T23:55:06.834Z,6.97
2023-03-21T23:59:58.617Z,6.67
